Time;durP1;ratioP1;P1;durP2;ratioP2;P2;SDS_P1;SDS_P2;PMS_P1;PMS_P2;Temp;Humidity;BMP_temperature;BMP_pressure;BME280_temperature;BME280_humidity;BME280_pressure;Samples;Min_cycle;Max_cycle;Signal;HPM_P1;HPM_P2
2022/03/04 00:00:52;;;;;;;19.27;16.10;;;4.20;37.60;;;;;;5134703;27;20175;-44
2022/03/04 00:03:19;;;;;;;22.47;15.50;;;4.20;37.70;;;;;;5135539;27;20421;-46
2022/03/04 00:05:44;;;;;;;19.63;15.50;;;4.20;37.70;;;;;;5136402;27;20222;-44
2022/03/04 00:08:10;;;;;;;20.97;16.37;;;4.20;37.70;;;;;;5136428;27;20621;-45
2022/03/04 00:10:37;;;;;;;17.80;14.87;;;4.20;37.80;;;;;;5136315;27;20180;-45
2022/03/04 00:13:03;;;;;;;20.23;15.77;;;4.10;37.70;;;;;;5136528;27;20172;-44
2022/03/04 00:15:28;;;;;;;18.03;15.30;;;4.10;37.80;;;;;;5135664;27;20432;-45
2022/03/04 00:17:54;;;;;;;18.20;14.40;;;4.00;37.90;;;;;;5137684;27;20405;-45
2022/03/04 00:20:20;;;;;;;22.67;15.73;;;3.90;37.90;;;;;;5134606;27;20552;-45
2022/03/04 00:22:46;;;;;;;22.47;17.33;;;3.90;38.10;;;;;;5117805;27;20835;-46
2022/03/04 00:25:12;;;;;;;19.87;15.70;;;3.90;38.20;;;;;;5135739;27;20504;-46
2022/03/04 00:27:39;;;;;;;18.93;15.93;;;3.90;38.20;;;;;;5137276;27;20195;-46
2022/03/04 00:30:06;;;;;;;17.23;14.90;;;3.90;38.30;;;;;;5136524;27;20425;-45
2022/03/04 00:32:31;;;;;;;20.10;15.40;;;3.90;38.50;;;;;;5136777;27;20475;-45
2022/03/04 00:34:57;;;;;;;19.90;16.37;;;3.80;38.50;;;;;;5138116;27;20524;-45
2022/03/04 00:37:23;;;;;;;20.50;14.80;;;3.80;38.60;;;;;;5138470;27;20253;-45
2022/03/04 00:39:49;;;;;;;21.33;16.17;;;3.80;38.70;;;;;;5135506;27;20472;-44
2022/03/04 00:42:14;;;;;;;23.23;17.80;;;3.70;38.70;;;;;;5137229;27;20205;-44
2022/03/04 00:44:40;;;;;;;18.57;15.63;;;3.60;38.70;;;;;;5136155;27;20187;-44
2022/03/04 00:47:06;;;;;;;20.60;16.47;;;3.60;38.80;;;;;;5137591;27;20164;-43
2022/03/04 00:49:33;;;;;;;20.50;15.77;;;3.60;38.80;;;;;;5136573;27;20263;-44
2022/03/04 00:51:58;;;;;;;21.53;16.37;;;3.50;38.80;;;;;;5138170;27;20493;-44
2022/03/04 00:54:24;;;;;;;20.67;17.07;;;3.60;38.90;;;;;;5136319;27;20472;-44
2022/03/04 00:56:50;;;;;;;19.40;15.87;;;3.50;38.80;;;;;;5137918;28;20186;-45
2022/03/04 00:59:15;;;;;;;19.10;16.43;;;3.50;38.90;;;;;;5136082;28;20207;-45
2022/03/04 01:01:41;;;;;;;22.20;16.77;;;3.50;38.90;;;;;;5137859;28;20190;-45
2022/03/04 01:04:07;;;;;;;18.70;16.07;;;3.40;38.90;;;;;;5137565;28;20258;-44
2022/03/04 01:06:34;;;;;;;18.10;15.00;;;3.40;39.00;;;;;;5136361;28;20823;-45
2022/03/04 01:09:00;;;;;;;19.20;15.67;;;3.30;39.00;;;;;;5137547;28;20408;-44
2022/03/04 01:11:25;;;;;;;19.00;16.20;;;3.30;39.00;;;;;;5135695;28;20421;-45
2022/03/04 01:13:51;;;;;;;23.03;17.27;;;3.30;39.10;;;;;;5137848;28;20432;-45
2022/03/04 01:16:17;;;;;;;20.53;16.10;;;3.20;39.00;;;;;;5136039;28;20260;-44
2022/03/04 01:18:42;;;;;;;20.53;16.27;;;3.20;39.10;;;;;;5137470;28;20239;-44
2022/03/04 01:21:08;;;;;;;19.37;16.33;;;3.20;39.20;;;;;;5136335;28;20569;-44
2022/03/04 01:23:34;;;;;;;20.53;15.67;;;3.20;39.30;;;;;;5137856;28;20194;-45
2022/03/04 01:26:00;;;;;;;20.40;15.97;;;3.20;39.30;;;;;;5136706;28;20558;-45
2022/03/04 01:28:26;;;;;;;17.80;15.50;;;3.20;39.40;;;;;;5138145;28;20659;-44
2022/03/04 01:30:53;;;;;;;21.70;16.27;;;3.10;39.30;;;;;;5137935;28;20444;-44
2022/03/04 01:33:19;;;;;;;18.33;15.93;;;3.00;39.30;;;;;;5136840;28;20721;-44
2022/03/04 01:35:45;;;;;;;21.57;15.03;;;3.00;39.40;;;;;;5136496;28;20409;-44
2022/03/04 01:38:11;;;;;;;18.50;16.10;;;3.00;39.40;;;;;;5136385;28;20191;-44
2022/03/04 01:40:37;;;;;;;21.83;15.20;;;3.00;39.60;;;;;;5138016;28;20394;-44
2022/03/04 01:43:03;;;;;;;17.70;15.03;;;3.00;39.70;;;;;;5137646;27;20416;-44
2022/03/04 01:45:29;;;;;;;20.23;15.47;;;2.90;39.70;;;;;;5141802;27;20394;-44
2022/03/04 01:47:55;;;;;;;19.40;16.03;;;2.90;39.80;;;;;;5139972;27;20424;-44
2022/03/04 01:50:22;;;;;;;22.27;16.73;;;2.90;39.80;;;;;;5141870;27;20501;-44
2022/03/04 01:52:48;;;;;;;21.43;15.27;;;2.80;39.80;;;;;;5123288;27;20424;-44
2022/03/04 01:55:14;;;;;;;19.63;15.80;;;2.80;39.80;;;;;;5140361;27;20425;-44
2022/03/04 01:57:40;;;;;;;5.40;4.60;;;2.80;39.90;;;;;;5141505;27;20397;-43
2022/03/04 02:00:09;;;;;;;8.60;5.50;;;3.30;51.20;;;;;;5140121;27;20260;-41
2022/03/04 02:02:34;;;;;;;8.57;7.00;;;4.20;95.40;;;;;;5141163;27;20243;-44
2022/03/04 02:05:02;;;;;;;16.40;12.30;;;5.00;99.60;;;;;;5140466;27;20436;-44
2022/03/04 02:07:28;;;;;;;16.60;13.97;;;5.40;94.40;;;;;;5141641;27;20199;-44
2022/03/04 02:09:54;;;;;;;16.13;14.40;;;5.50;80.10;;;;;;5139739;27;20590;-44
2022/03/04 02:12:19;;;;;;;16.03;14.23;;;5.30;70.20;;;;;;5141502;27;20451;-44
2022/03/04 02:14:45;;;;;;;19.00;16.00;;;5.10;64.00;;;;;;5140260;27;20477;-44
2022/03/04 02:17:11;;;;;;;18.43;14.87;;;4.90;60.20;;;;;;5141454;27;20691;-44
2022/03/04 02:19:36;;;;;;;19.07;16.10;;;4.70;58.90;;;;;;5140459;27;20180;-44
2022/03/04 02:22:04;;;;;;;18.47;15.43;;;4.40;58.10;;;;;;5141143;27;20258;-45
2022/03/04 02:24:32;;;;;;;18.23;15.57;;;4.20;57.50;;;;;;5139900;27;20188;-44
2022/03/04 02:27:00;;;;;;;18.90;15.60;;;3.90;57.00;;;;;;5141741;27;20822;-44
2022/03/04 02:29:26;;;;;;;18.10;16.10;;;3.70;56.80;;;;;;5121391;27;20465;-44
2022/03/04 02:31:52;;;;;;;17.53;15.73;;;3.60;56.70;;;;;;5122758;27;20417;-44
2022/03/04 02:34:19;;;;;;;21.33;15.83;;;3.40;56.60;;;;;;5139446;27;20397;-44
2022/03/04 02:36:45;;;;;;;18.13;15.40;;;3.30;56.40;;;;;;5141405;27;20401;-44
2022/03/04 02:39:11;;;;;;;18.23;14.73;;;3.20;56.20;;;;;;5139355;27;20504;-44
2022/03/04 02:41:38;;;;;;;20.70;15.47;;;3.20;56.00;;;;;;5140925;27;20433;-44
2022/03/04 02:44:05;;;;;;;17.50;15.33;;;3.20;55.90;;;;;;5139286;27;20504;-44
2022/03/04 02:46:31;;;;;;;19.30;15.30;;;3.00;55.70;;;;;;5141332;27;20415;-44
2022/03/04 02:48:57;;;;;;;20.53;15.93;;;2.90;55.60;;;;;;5140966;27;20456;-45
2022/03/04 02:51:23;;;;;;;21.57;16.97;;;2.80;55.60;;;;;;5139232;27;20436;-45
2022/03/04 02:53:48;;;;;;;18.63;14.93;;;2.80;55.60;;;;;;5105194;28;20249;-44
2022/03/04 02:56:14;;;;;;;19.70;14.50;;;2.70;55.70;;;;;;5139268;27;20278;-44
2022/03/04 02:58:40;;;;;;;20.43;15.43;;;2.60;55.70;;;;;;5140622;27;20251;-44
2022/03/04 03:01:05;;;;;;;17.93;14.60;;;2.60;55.70;;;;;;5121348;27;20191;-44
2022/03/04 03:03:31;;;;;;;19.77;14.63;;;2.60;55.70;;;;;;5140088;27;20175;-44
2022/03/04 03:05:57;;;;;;;19.83;14.70;;;2.60;55.70;;;;;;5138278;27;20489;-44
2022/03/04 03:08:22;;;;;;;20.57;16.03;;;2.50;55.60;;;;;;5140466;27;20179;-44
2022/03/04 03:10:48;;;;;;;20.87;16.40;;;2.50;55.50;;;;;;5139091;27;20221;-44
2022/03/04 03:13:14;;;;;;;20.53;15.67;;;2.50;55.50;;;;;;5140271;27;20200;-44
2022/03/04 03:15:39;;;;;;;17.73;14.60;;;2.40;55.50;;;;;;5138979;27;20183;-44
2022/03/04 03:18:06;;;;;;;21.50;15.93;;;2.30;55.50;;;;;;5140009;27;20244;-44
2022/03/04 03:20:31;;;;;;;20.83;16.33;;;2.30;55.50;;;;;;5138544;27;20176;-44
2022/03/04 03:22:57;;;;;;;17.73;14.03;;;2.20;55.40;;;;;;5140478;27;20671;-44
2022/03/04 03:25:23;;;;;;;18.33;15.77;;;2.20;55.50;;;;;;5139206;27;20187;-44
2022/03/04 03:27:48;;;;;;;20.30;15.23;;;2.20;55.50;;;;;;5139741;27;20187;-45
2022/03/04 03:30:14;;;;;;;17.50;15.53;;;2.10;55.50;;;;;;5138194;27;20222;-46
2022/03/04 03:32:40;;;;;;;19.83;15.43;;;2.10;55.50;;;;;;5140084;27;20251;-44
2022/03/04 03:35:09;;;;;;;19.60;14.90;;;2.10;55.60;;;;;;5138649;27;20168;-44
2022/03/04 03:37:38;;;;;;;17.43;15.10;;;2.10;55.60;;;;;;5139880;27;20440;-44
2022/03/04 03:40:06;;;;;;;17.27;14.27;;;2.00;55.50;;;;;;5138821;27;20413;-45
2022/03/04 03:42:32;;;;;;;17.87;13.93;;;2.00;55.50;;;;;;5121921;27;20519;-44
2022/03/04 03:44:58;;;;;;;18.37;14.47;;;2.00;55.50;;;;;;5139462;27;20524;-44
2022/03/04 03:47:23;;;;;;;15.87;13.93;;;2.00;55.50;;;;;;5138852;27;20191;-45
2022/03/04 03:49:49;;;;;;;18.10;14.53;;;1.90;55.40;;;;;;5139772;27;20207;-45
2022/03/04 03:52:15;;;;;;;21.23;15.33;;;1.90;55.40;;;;;;5138514;27;20439;-44
2022/03/04 03:54:40;;;;;;;16.57;13.70;;;1.90;55.40;;;;;;5139287;27;20172;-44
2022/03/04 03:57:06;;;;;;;18.77;14.70;;;1.90;55.40;;;;;;5137662;27;20187;-44
2022/03/04 03:59:32;;;;;;;18.50;14.77;;;1.80;55.40;;;;;;5121376;27;20207;-45
2022/03/04 04:01:58;;;;;;;16.67;13.73;;;1.80;55.40;;;;;;5138057;27;20188;-45
2022/03/04 04:04:24;;;;;;;19.07;14.40;;;1.80;55.50;;;;;;5139032;27;20184;-44
2022/03/04 04:06:50;;;;;;;19.40;14.30;;;1.70;55.50;;;;;;5137911;27;20428;-44
2022/03/04 04:09:16;;;;;;;20.00;15.07;;;1.80;55.50;;;;;;5139397;27;20456;-45
2022/03/04 04:11:43;;;;;;;18.93;14.70;;;1.70;55.50;;;;;;5137668;27;20516;-45
2022/03/04 04:14:09;;;;;;;18.53;15.47;;;1.70;55.50;;;;;;5138531;27;20401;-44
2022/03/04 04:16:36;;;;;;;19.50;14.33;;;1.70;55.50;;;;;;5138315;27;20429;-44
2022/03/04 04:19:03;;;;;;;17.57;14.60;;;1.60;55.40;;;;;;5120620;27;20495;-45
2022/03/04 04:21:28;;;;;;;17.80;15.50;;;1.60;55.40;;;;;;5137759;27;20421;-44
2022/03/04 04:23:55;;;;;;;19.63;14.07;;;1.60;55.30;;;;;;5121028;27;20424;-44
2022/03/04 04:26:21;;;;;;;20.30;16.10;;;1.50;55.30;;;;;;5119799;27;20196;-44
2022/03/04 04:28:47;;;;;;;17.83;13.67;;;1.50;55.40;;;;;;5139128;27;20457;-44
2022/03/04 04:31:13;;;;;;;18.53;14.10;;;1.40;55.40;;;;;;5138066;27;20757;-45
2022/03/04 04:33:39;;;;;;;18.63;15.00;;;1.40;55.50;;;;;;5120274;27;20464;-44
2022/03/04 04:36:05;;;;;;;18.30;14.10;;;1.40;55.40;;;;;;5137197;27;20444;-44
2022/03/04 04:38:31;;;;;;;18.67;15.20;;;1.40;55.50;;;;;;5138741;27;20175;-45
2022/03/04 04:40:57;;;;;;;18.13;14.47;;;1.30;55.40;;;;;;5137329;27;20431;-45
2022/03/04 04:43:23;;;;;;;23.80;15.17;;;1.30;55.50;;;;;;5137714;27;20409;-44
2022/03/04 04:45:49;;;;;;;17.27;14.50;;;1.30;55.50;;;;;;5137483;27;20213;-44
2022/03/04 04:48:15;;;;;;;19.73;13.80;;;1.30;55.50;;;;;;5138526;27;20712;-44
2022/03/04 04:50:42;;;;;;;21.40;16.00;;;1.30;55.50;;;;;;5138605;27;20520;-44
2022/03/04 04:53:07;;;;;;;20.93;15.63;;;1.30;55.50;;;;;;5136987;27;20437;-44
2022/03/04 04:55:33;;;;;;;18.10;15.07;;;1.20;55.60;;;;;;5137934;27;20489;-44
2022/03/04 04:57:59;;;;;;;22.80;14.73;;;1.20;55.60;;;;;;5137381;28;20421;-44
2022/03/04 05:00:25;;;;;;;17.67;14.93;;;1.20;55.70;;;;;;5138477;28;20509;-45
2022/03/04 05:02:51;;;;;;;19.73;15.33;;;1.10;55.80;;;;;;5118252;28;20437;-46
2022/03/04 05:05:17;;;;;;;17.73;14.73;;;1.10;55.80;;;;;;5120114;27;20859;-47
2022/03/04 05:07:43;;;;;;;22.53;14.20;;;1.10;55.90;;;;;;5137088;27;20705;-48
2022/03/04 05:10:08;;;;;;;16.90;15.07;;;1.10;55.90;;;;;;5138517;27;20218;-46
2022/03/04 05:12:34;;;;;;;17.97;14.30;;;1.10;55.90;;;;;;5135858;27;20241;-47
2022/03/04 05:15:00;;;;;;;17.53;14.07;;;1.10;55.70;;;;;;5137927;27;20171;-46
2022/03/04 05:17:25;;;;;;;16.03;14.33;;;1.10;55.50;;;;;;5137542;27;20191;-46
2022/03/04 05:19:51;;;;;;;19.63;15.27;;;1.10;55.50;;;;;;5140681;27;20186;-46
2022/03/04 05:22:17;;;;;;;17.03;14.37;;;1.20;55.50;;;;;;5139381;27;20195;-46
2022/03/04 05:24:43;;;;;;;19.40;16.17;;;1.20;55.40;;;;;;5140262;27;20441;-47
2022/03/04 05:27:09;;;;;;;20.87;15.47;;;1.20;55.40;;;;;;5120213;27;20211;-46
2022/03/04 05:29:34;;;;;;;19.10;15.57;;;1.20;55.40;;;;;;5137274;27;20530;-46
2022/03/04 05:32:01;;;;;;;20.70;16.03;;;1.10;55.40;;;;;;5135378;27;20516;-46
2022/03/04 05:34:27;;;;;;;19.10;15.10;;;1.00;55.40;;;;;;5137759;27;20183;-46
2022/03/04 05:36:53;;;;;;;19.30;14.93;;;1.00;55.40;;;;;;5121985;27;20517;-47
2022/03/04 05:39:19;;;;;;;21.27;16.33;;;1.00;55.50;;;;;;5116142;28;20497;-47
2022/03/04 05:41:44;;;;;;;19.27;15.63;;;1.00;55.50;;;;;;5117118;28;20508;-47
2022/03/04 05:44:10;;;;;;;19.00;15.47;;;1.00;55.50;;;;;;5117666;28;20522;-47
2022/03/04 05:46:36;;;;;;;19.30;15.77;;;0.90;55.40;;;;;;5101558;28;20221;-47
2022/03/04 05:49:02;;;;;;;19.57;15.60;;;0.90;55.60;;;;;;5123377;27;20211;-47
2022/03/04 05:51:29;;;;;;;21.77;16.40;;;0.90;55.60;;;;;;5125018;27;20516;-46
2022/03/04 05:53:55;;;;;;;20.70;15.53;;;0.80;55.60;;;;;;5116297;28;20410;-47
2022/03/04 05:56:21;;;;;;;20.73;15.87;;;0.90;55.70;;;;;;5119084;28;20530;-47
2022/03/04 05:58:47;;;;;;;17.80;14.90;;;0.90;55.80;;;;;;5117487;28;20454;-47
2022/03/04 06:01:13;;;;;;;19.03;15.70;;;0.80;55.70;;;;;;5116986;28;20457;-47
2022/03/04 06:03:39;;;;;;;20.43;16.00;;;0.80;55.70;;;;;;5115319;28;20428;-47
2022/03/04 06:06:05;;;;;;;20.97;15.57;;;0.80;55.80;;;;;;5116480;28;20353;-46
2022/03/04 06:08:31;;;;;;;21.73;15.10;;;0.80;55.80;;;;;;5116233;28;20430;-47
2022/03/04 06:10:56;;;;;;;18.27;14.43;;;0.80;55.90;;;;;;5116812;28;20686;-47
2022/03/04 06:13:22;;;;;;;20.70;15.63;;;0.70;55.90;;;;;;5116627;28;20696;-47
2022/03/04 06:15:48;;;;;;;20.40;15.63;;;0.70;56.00;;;;;;5118636;28;20180;-47
2022/03/04 06:18:15;;;;;;;20.87;14.50;;;0.70;56.10;;;;;;5117366;28;20172;-47
2022/03/04 06:20:41;;;;;;;21.33;15.63;;;0.70;56.20;;;;;;5118731;28;20188;-47
2022/03/04 06:23:08;;;;;;;22.30;15.87;;;0.70;56.20;;;;;;5116558;28;20425;-47
2022/03/04 06:25:33;;;;;;;21.17;16.53;;;0.70;56.30;;;;;;5118039;28;20418;-47
2022/03/04 06:28:01;;;;;;;22.90;16.90;;;0.80;56.50;;;;;;5119440;28;20797;-47
2022/03/04 06:30:29;;;;;;;20.20;16.20;;;0.80;56.50;;;;;;5135523;27;20276;-47
2022/03/04 06:33:30;;;;;;;23.13;15.97;;;0.80;56.60;;;;;;5099303;28;20473;-47
2022/03/04 06:35:42;;;;;;;19.60;15.37;;;0.90;56.80;;;;;;5116512;28;20426;-47
2022/03/04 06:38:09;;;;;;;22.17;16.00;;;1.00;57.10;;;;;;5116294;28;20840;-47
2022/03/04 06:40:35;;;;;;;19.50;14.97;;;1.00;57.20;;;;;;5099557;28;20436;-47
2022/03/04 06:43:01;;;;;;;19.17;14.70;;;1.10;57.20;;;;;;5118229;28;20194;-47
2022/03/04 06:45:26;;;;;;;20.40;15.67;;;1.30;57.10;;;;;;5116537;28;20635;-47
2022/03/04 06:47:53;;;;;;;19.93;16.40;;;1.40;57.10;;;;;;5116916;28;20196;-47
2022/03/04 06:50:18;;;;;;;20.67;15.23;;;1.60;57.00;;;;;;5113580;28;20219;-47
2022/03/04 06:52:44;;;;;;;21.53;16.30;;;1.70;56.90;;;;;;5116662;28;20422;-48
2022/03/04 06:55:11;;;;;;;18.27;13.63;;;1.90;56.90;;;;;;5114906;28;20176;-47
2022/03/04 06:57:37;;;;;;;20.97;15.50;;;2.00;56.70;;;;;;5116427;28;20193;-47
2022/03/04 07:00:07;;;;;;;18.17;14.90;;;2.20;56.50;;;;;;5117490;28;20418;-48
2022/03/04 07:02:36;;;;;;;20.60;16.40;;;2.40;56.30;;;;;;5116089;28;20434;-48
2022/03/04 07:05:11;;;;;;;18.83;16.00;;;2.60;56.00;;;;;;5118759;28;20422;-47
2022/03/04 07:07:37;;;;;;;20.70;16.63;;;2.90;55.70;;;;;;5114753;28;20556;-48
2022/03/04 07:10:03;;;;;;;23.50;17.07;;;3.10;55.30;;;;;;5115078;28;20473;-48
2022/03/04 07:12:29;;;;;;;21.10;16.10;;;3.40;55.00;;;;;;5113059;28;20458;-47
2022/03/04 07:14:55;;;;;;;19.00;16.00;;;3.60;54.80;;;;;;5114343;28;20441;-48
2022/03/04 07:17:21;;;;;;;18.57;16.60;;;3.80;54.50;;;;;;5095914;28;20308;-47
2022/03/04 07:19:47;;;;;;;20.83;16.33;;;4.00;54.10;;;;;;5116193;28;20190;-48
2022/03/04 07:22:12;;;;;;;18.23;16.13;;;4.30;53.90;;;;;;5097901;28;20441;-48
2022/03/04 07:24:39;;;;;;;19.77;16.90;;;4.50;54.00;;;;;;5115945;28;20192;-48
2022/03/04 07:27:05;;;;;;;19.07;15.70;;;4.80;53.10;;;;;;5117876;28;20463;-47
2022/03/04 07:29:30;;;;;;;20.87;17.40;;;5.00;52.70;;;;;;5117630;28;20473;-48
2022/03/04 07:31:56;;;;;;;20.57;16.40;;;5.30;52.20;;;;;;5117667;28;20757;-48
2022/03/04 07:34:24;;;;;;;25.20;18.00;;;5.60;51.70;;;;;;5114122;28;20193;-48
2022/03/04 07:36:51;;;;;;;21.27;18.60;;;5.90;51.10;;;;;;5115178;28;20418;-48
2022/03/04 07:39:17;;;;;;;19.60;17.30;;;6.20;50.30;;;;;;5114459;28;20422;-47
2022/03/04 07:41:43;;;;;;;23.20;19.17;;;6.60;49.80;;;;;;5113564;28;20429;-48
2022/03/04 07:44:10;;;;;;;20.63;18.30;;;6.90;49.20;;;;;;5112946;28;20804;-48
2022/03/04 07:46:36;;;;;;;24.13;17.87;;;7.20;48.60;;;;;;5112278;28;20468;-48
2022/03/04 07:49:04;;;;;;;20.50;17.27;;;7.50;47.90;;;;;;5113905;28;20501;-48
2022/03/04 07:51:31;;;;;;;20.53;18.00;;;7.80;47.30;;;;;;5113440;28;20857;-48
2022/03/04 07:53:58;;;;;;;20.53;18.33;;;8.10;46.60;;;;;;5114862;28;20407;-47
2022/03/04 07:56:23;;;;;;;19.93;17.93;;;8.40;46.10;;;;;;5077874;28;20180;-47
2022/03/04 07:58:49;;;;;;;21.70;19.23;;;8.70;45.40;;;;;;5114084;28;20445;-47
2022/03/04 08:01:15;;;;;;;26.00;20.23;;;9.00;45.00;;;;;;5115256;28;20188;-47
2022/03/04 08:03:42;;;;;;;23.10;20.30;;;9.30;44.30;;;;;;5095691;28;20475;-47
2022/03/04 08:06:08;;;;;;;22.10;19.70;;;9.50;43.50;;;;;;5113212;28;20422;-47
2022/03/04 08:08:34;;;;;;;23.97;19.90;;;9.80;42.90;;;;;;5113411;28;20430;-46
2022/03/04 08:11:01;;;;;;;29.03;20.90;;;10.10;41.50;;;;;;5111456;28;20425;-47
2022/03/04 08:13:26;;;;;;;21.40;18.70;;;10.40;41.00;;;;;;5114481;28;20188;-47
2022/03/04 08:15:52;;;;;;;24.93;20.70;;;10.80;40.70;;;;;;5112218;28;20418;-47
2022/03/04 08:18:18;;;;;;;25.07;21.30;;;11.10;40.00;;;;;;5114477;28;20528;-48
2022/03/04 08:20:44;;;;;;;25.10;21.20;;;11.40;39.30;;;;;;5113583;28;20455;-48
2022/03/04 08:23:11;;;;;;;22.77;20.37;;;11.70;38.40;;;;;;5114854;28;20559;-48
2022/03/04 08:25:40;;;;;;;23.00;20.43;;;12.00;37.80;;;;;;5096324;28;20268;-48
2022/03/04 08:28:06;;;;;;;26.60;22.00;;;12.40;37.10;;;;;;5116295;28;20422;-47
2022/03/04 08:30:32;;;;;;;23.67;19.30;;;12.70;35.90;;;;;;5112177;28;20483;-47
2022/03/04 08:32:58;;;;;;;22.37;20.07;;;13.00;34.80;;;;;;5097477;28;20235;-47
2022/03/04 08:35:25;;;;;;;22.63;20.20;;;13.40;34.30;;;;;;5113867;28;20501;-48
2022/03/04 08:37:52;;;;;;;22.43;20.03;;;13.80;34.00;;;;;;5116253;28;20410;-48
2022/03/04 08:40:18;;;;;;;23.07;19.97;;;14.20;33.20;;;;;;5113327;28;20762;-48
2022/03/04 08:42:44;;;;;;;23.33;20.83;;;14.60;32.50;;;;;;5114261;28;20422;-48
2022/03/04 08:45:11;;;;;;;26.50;20.23;;;15.00;31.90;;;;;;5114467;28;20418;-48
2022/03/04 08:47:38;;;;;;;22.00;19.07;;;15.40;31.40;;;;;;5110375;28;20510;-47
2022/03/04 08:50:05;;;;;;;24.03;21.40;;;15.80;30.90;;;;;;5114198;28;20466;-48
2022/03/04 08:52:31;;;;;;;22.43;20.13;;;16.30;30.30;;;;;;5112227;28;20419;-48
2022/03/04 08:54:56;;;;;;;22.70;20.27;;;16.70;29.90;;;;;;5114808;28;20411;-48
2022/03/04 08:57:22;;;;;;;22.57;20.13;;;17.00;29.30;;;;;;5113291;28;20197;-48
2022/03/04 08:59:48;;;;;;;22.97;20.40;;;17.40;29.20;;;;;;5114388;28;20527;-48
2022/03/04 09:02:13;;;;;;;23.70;21.20;;;17.80;28.70;;;;;;5113185;28;20169;-48
2022/03/04 09:04:39;;;;;;;25.10;21.00;;;18.10;28.00;;;;;;5115757;28;20191;-48
2022/03/04 09:07:06;;;;;;;23.77;21.33;;;18.30;27.40;;;;;;5114613;28;20177;-48
2022/03/04 09:09:36;;;;;;;25.83;20.73;;;18.60;27.10;;;;;;5116639;28;20227;-48
2022/03/04 09:12:01;;;;;;;23.37;21.10;;;19.00;27.00;;;;;;5114332;28;20413;-47
2022/03/04 09:14:27;;;;;;;24.27;21.67;;;19.30;26.60;;;;;;5115949;28;20425;-47
2022/03/04 09:16:53;;;;;;;23.17;20.80;;;19.50;26.40;;;;;;5115946;28;20414;-48
2022/03/04 09:19:19;;;;;;;24.40;21.87;;;19.60;26.10;;;;;;5115323;28;20870;-48
2022/03/04 09:21:47;;;;;;;25.60;23.20;;;19.80;26.00;;;;;;5124554;28;20429;-48
2022/03/04 09:24:13;;;;;;;24.27;21.90;;;20.20;25.80;;;;;;5134515;28;20187;-48
2022/03/04 09:26:38;;;;;;;24.20;21.80;;;20.50;25.60;;;;;;5135605;28;20430;-48
2022/03/04 09:29:05;;;;;;;24.87;22.47;;;20.90;25.30;;;;;;5133756;28;20499;-48
2022/03/04 09:31:31;;;;;;;24.33;21.93;;;21.30;24.90;;;;;;5135849;28;20190;-48
2022/03/04 09:33:56;;;;;;;26.13;23.43;;;21.50;24.50;;;;;;5134561;28;20475;-48
2022/03/04 09:36:22;;;;;;;24.40;22.00;;;21.70;24.30;;;;;;5134942;28;20181;-48
2022/03/04 09:38:48;;;;;;;24.50;22.10;;;22.10;24.10;;;;;;5134016;28;20188;-48
2022/03/04 09:41:14;;;;;;;25.33;22.47;;;22.40;24.00;;;;;;5133999;28;20195;-47
2022/03/04 09:43:40;;;;;;;25.40;23.00;;;22.70;23.80;;;;;;5133316;28;20185;-48
2022/03/04 09:46:06;;;;;;;25.60;23.00;;;23.00;23.70;;;;;;5134771;28;20502;-48
2022/03/04 09:48:39;;;;;;;25.60;22.87;;;23.30;23.90;;;;;;5132609;28;20182;-48
2022/03/04 09:51:07;;;;;;;25.30;22.90;;;23.60;23.50;;;;;;5134847;28;20439;-48
2022/03/04 09:53:33;;;;;;;25.83;23.00;;;23.90;23.50;;;;;;5115228;28;20440;-47
2022/03/04 09:55:59;;;;;;;24.63;22.33;;;24.30;23.40;;;;;;5132449;28;20431;-48
2022/03/04 09:58:24;;;;;;;26.77;24.00;;;24.60;23.00;;;;;;5135484;28;20424;-48
2022/03/04 10:00:50;;;;;;;24.80;22.50;;;24.90;22.60;;;;;;5134328;28;20655;-48
2022/03/04 10:03:43;;;;;;;25.90;23.30;;;25.10;22.50;;;;;;5136592;27;20183;-46
2022/03/04 10:06:09;;;;;;;25.27;22.67;;;25.50;22.40;;;;;;5140794;27;20186;-47
2022/03/04 10:08:39;;;;;;;24.73;22.53;;;25.90;22.40;;;;;;5140960;27;20393;-47
2022/03/04 10:11:05;;;;;;;24.63;22.33;;;26.30;22.20;;;;;;5139907;27;20417;-47
2022/03/04 10:13:41;;;;;;;24.10;21.70;;;26.40;21.80;;;;;;5140625;27;20420;-47
2022/03/04 10:16:07;;;;;;;24.13;22.03;;;26.60;21.70;;;;;;5138536;27;20642;-47
2022/03/04 10:18:32;;;;;;;23.40;21.40;;;26.90;21.70;;;;;;5138600;27;20513;-47
2022/03/04 10:20:58;;;;;;;24.43;22.27;;;27.10;21.60;;;;;;5136355;27;20194;-47
2022/03/04 10:23:26;;;;;;;23.30;21.20;;;27.60;21.30;;;;;;5138950;27;20285;-47
2022/03/04 10:25:54;;;;;;;23.70;21.60;;;28.00;21.00;;;;;;5139335;27;20211;-47
2022/03/04 10:28:27;;;;;;;25.70;23.03;;;28.30;20.90;;;;;;5137413;27;20464;-47
2022/03/04 10:30:54;;;;;;;24.53;22.43;;;28.60;20.80;;;;;;5137160;27;20653;-47
2022/03/04 10:33:28;;;;;;;24.00;22.00;;;28.80;20.50;;;;;;5138347;27;20765;-47
2022/03/04 10:36:08;;;;;;;24.50;22.43;;;29.30;20.20;;;;;;5137649;27;20437;-47
2022/03/04 10:38:35;;;;;;;25.60;23.30;;;29.40;19.90;;;;;;5139993;27;20436;-47
2022/03/04 10:41:00;;;;;;;26.40;24.00;;;29.60;19.80;;;;;;5140244;27;20824;-47
2022/03/04 10:43:35;;;;;;;23.47;21.30;;;29.60;19.80;;;;;;5138546;27;20470;-47
2022/03/04 10:46:04;;;;;;;25.27;23.10;;;29.70;19.80;;;;;;5134618;27;20420;-47
2022/03/04 10:48:30;;;;;;;24.43;22.33;;;29.90;19.80;;;;;;5139368;27;20424;-46
2022/03/04 10:50:58;;;;;;;24.73;22.53;;;30.20;19.80;;;;;;5138934;27;20405;-47
2022/03/04 10:53:26;;;;;;;25.37;23.17;;;30.40;19.70;;;;;;5134698;27;20481;-46
2022/03/04 10:56:19;;;;;;;24.23;22.23;;;30.50;19.70;;;;;;5134988;27;20733;-47
2022/03/04 10:58:45;;;;;;;23.90;22.00;;;30.60;19.70;;;;;;5129547;27;20472;-47
2022/03/04 11:01:20;;;;;;;23.00;21.00;;;30.90;19.50;;;;;;5132716;27;20421;-47
2022/03/04 11:03:47;;;;;;;24.43;22.40;;;31.20;19.50;;;;;;5137130;27;20249;-47
2022/03/04 11:06:15;;;;;;;23.47;21.57;;;31.40;19.30;;;;;;5134769;27;20504;-46
2022/03/04 11:08:42;;;;;;;18.23;16.50;;;31.50;19.40;;;;;;5136624;27;20412;-45
2022/03/04 11:11:08;;;;;;;15.23;13.90;;;31.70;22.20;;;;;;5114891;27;20453;-42
2022/03/04 11:13:34;;;;;;;13.97;12.87;;;31.90;23.80;;;;;;5135636;27;20451;-42
2022/03/04 11:16:01;;;;;;;15.23;13.83;;;32.40;24.20;;;;;;5134995;27;20406;-42
2022/03/04 11:18:27;;;;;;;18.23;16.73;;;32.40;23.70;;;;;;5136577;27;20813;-47
2022/03/04 11:20:55;;;;;;;17.70;16.20;;;32.70;22.20;;;;;;5117565;27;20415;-42
2022/03/04 11:23:26;;;;;;;23.53;15.57;;;32.60;22.30;;;;;;5136792;27;20193;-46
2022/03/04 11:26:00;;;;;;;19.97;14.50;;;32.40;22.90;;;;;;5138874;27;20416;-43
2022/03/04 11:28:49;;;;;;;15.97;14.47;;;32.70;23.20;;;;;;5136141;27;20424;-44
2022/03/04 11:31:20;;;;;;;16.70;15.10;;;33.00;22.90;;;;;;5136359;27;20420;-44
2022/03/04 11:33:53;;;;;;;18.40;16.00;;;33.50;22.80;;;;;;5137473;27;20631;-43
2022/03/04 11:36:25;;;;;;;17.83;16.20;;;34.00;22.50;;;;;;5135786;27;20642;-41
2022/03/04 11:38:52;;;;;;;17.93;15.40;;;33.60;22.50;;;;;;5136154;27;20460;-40
2022/03/04 11:41:27;;;;;;;16.27;14.87;;;33.60;22.30;;;;;;5133583;27;20402;-41
2022/03/04 11:44:22;;;;;;;15.67;14.37;;;33.70;22.50;;;;;;5137876;27;20394;-42
2022/03/04 11:47:02;;;;;;;18.33;16.70;;;34.00;22.20;;;;;;5100218;27;20538;-41
2022/03/04 11:49:38;;;;;;;16.97;15.47;;;33.90;21.80;;;;;;5135977;27;20864;-43
2022/03/04 11:52:10;;;;;;;16.43;14.93;;;33.80;23.10;;;;;;5133461;27;20430;-42
2022/03/04 11:54:36;;;;;;;17.90;16.40;;;34.00;22.20;;;;;;5136579;27;20788;-41
2022/03/04 11:57:21;;;;;;;15.93;14.60;;;34.00;21.60;;;;;;5134507;27;20426;-40
2022/03/04 11:59:50;;;;;;;15.87;14.37;;;34.10;22.50;;;;;;5136997;27;20212;-41
2022/03/04 12:02:30;;;;;;;15.03;13.53;;;34.10;22.80;;;;;;5136465;27;20670;-43
2022/03/04 12:05:14;;;;;;;15.53;14.03;;;34.00;23.00;;;;;;5119630;27;20409;-44
2022/03/04 12:07:47;;;;;;;14.97;13.30;;;34.10;23.30;;;;;;5133348;27;20665;-42
2022/03/04 12:10:17;;;;;;;14.77;13.27;;;34.00;23.70;;;;;;5115501;28;20493;-43
2022/03/04 12:13:09;;;;;;;14.57;13.17;;;34.10;23.50;;;;;;5114014;28;20432;-43
2022/03/04 12:15:40;;;;;;;14.47;13.17;;;34.40;22.70;;;;;;5113990;28;20640;-43
2022/03/04 12:18:07;;;;;;;13.73;12.40;;;34.30;22.60;;;;;;5111865;28;20407;-41
2022/03/04 12:20:42;;;;;;;15.27;13.97;;;34.40;23.00;;;;;;5093032;28;20512;-43
2022/03/04 12:23:14;;;;;;;14.73;13.50;;;34.50;22.40;;;;;;5112975;28;20663;-45
2022/03/04 12:25:52;;;;;;;16.57;15.07;;;34.50;22.30;;;;;;5112864;28;20398;-41
2022/03/04 12:28:20;;;;;;;17.17;15.77;;;34.80;21.00;;;;;;5112291;28;20433;-43
2022/03/04 12:30:46;;;;;;;15.27;13.97;;;35.00;20.40;;;;;;5114292;28;20398;-41
2022/03/04 12:33:12;;;;;;;14.77;13.50;;;34.90;21.10;;;;;;5112117;28;20484;-42